sensor_id;sensor_type;location;lat;lon;timestamp;P1;durP1;ratioP1;P2;durP2;ratioP2
3006;SDS011;1513;47.650;10.720;2023-05-14T00:00:59;18.23;;;11.23;;
3006;SDS011;1513;47.650;10.720;2023-05-14T00:03:25;19.40;;;12.07;;
3006;SDS011;1513;47.650;10.720;2023-05-14T00:05:51;15.93;;;10.77;;
3006;SDS011;1513;47.650;10.720;2023-05-14T00:08:18;19.27;;;11.47;;
3006;SDS011;1513;47.650;10.720;2023-05-14T00:10:44;17.80;;;12.43;;
3006;SDS011;1513;47.650;10.720;2023-05-14T00:13:10;17.30;;;10.93;;
3006;SDS011;1513;47.650;10.720;2023-05-14T00:15:36;16.70;;;11.20;;
3006;SDS011;1513;47.650;10.720;2023-05-14T00:18:03;17.23;;;11.80;;
3006;SDS011;1513;47.650;10.720;2023-05-14T00:20:31;18.80;;;12.40;;
3006;SDS011;1513;47.650;10.720;2023-05-14T00:22:57;18.03;;;11.37;;
3006;SDS011;1513;47.650;10.720;2023-05-14T00:25:23;19.73;;;13.30;;
3006;SDS011;1513;47.650;10.720;2023-05-14T00:27:50;35.73;;;12.17;;
3006;SDS011;1513;47.650;10.720;2023-05-14T00:30:16;17.10;;;11.50;;
3006;SDS011;1513;47.650;10.720;2023-05-14T00:32:42;18.23;;;11.93;;
3006;SDS011;1513;47.650;10.720;2023-05-14T00:35:09;20.83;;;12.00;;
3006;SDS011;1513;47.650;10.720;2023-05-14T00:37:35;20.47;;;12.13;;
3006;SDS011;1513;47.650;10.720;2023-05-14T00:40:01;25.50;;;12.87;;
3006;SDS011;1513;47.650;10.720;2023-05-14T00:42:28;22.87;;;13.50;;
3006;SDS011;1513;47.650;10.720;2023-05-14T00:44:54;19.17;;;12.10;;
3006;SDS011;1513;47.650;10.720;2023-05-14T00:47:21;17.57;;;11.70;;
3006;SDS011;1513;47.650;10.720;2023-05-14T00:49:47;17.23;;;10.90;;
3006;SDS011;1513;47.650;10.720;2023-05-14T00:52:14;16.57;;;11.30;;
3006;SDS011;1513;47.650;10.720;2023-05-14T00:54:40;17.97;;;11.93;;
3006;SDS011;1513;47.650;10.720;2023-05-14T00:57:07;14.67;;;9.60;;
3006;SDS011;1513;47.650;10.720;2023-05-14T00:59:33;16.93;;;11.10;;
3006;SDS011;1513;47.650;10.720;2023-05-14T01:02:00;17.87;;;12.03;;
3006;SDS011;1513;47.650;10.720;2023-05-14T01:04:26;16.57;;;11.37;;
3006;SDS011;1513;47.650;10.720;2023-05-14T01:12:18;19.70;;;11.77;;
3006;SDS011;1513;47.650;10.720;2023-05-14T01:14:56;19.50;;;12.17;;
3006;SDS011;1513;47.650;10.720;2023-05-14T01:17:30;20.20;;;12.67;;
3006;SDS011;1513;47.650;10.720;2023-05-14T01:19:57;18.90;;;11.47;;
3006;SDS011;1513;47.650;10.720;2023-05-14T01:22:24;16.50;;;10.60;;
3006;SDS011;1513;47.650;10.720;2023-05-14T01:24:51;19.93;;;11.90;;
3006;SDS011;1513;47.650;10.720;2023-05-14T01:27:23;16.87;;;11.97;;
3006;SDS011;1513;47.650;10.720;2023-05-14T01:30:08;22.40;;;13.87;;
3006;SDS011;1513;47.650;10.720;2023-05-14T01:32:50;21.17;;;12.17;;
3006;SDS011;1513;47.650;10.720;2023-05-14T01:35:18;20.50;;;12.47;;
3006;SDS011;1513;47.650;10.720;2023-05-14T01:37:46;18.40;;;12.10;;
3006;SDS011;1513;47.650;10.720;2023-05-14T01:40:13;21.87;;;12.67;;
3006;SDS011;1513;47.650;10.720;2023-05-14T01:42:40;21.27;;;13.37;;
3006;SDS011;1513;47.650;10.720;2023-05-14T01:45:07;19.73;;;11.40;;
3006;SDS011;1513;47.650;10.720;2023-05-14T01:47:34;21.33;;;12.53;;
3006;SDS011;1513;47.650;10.720;2023-05-14T01:50:01;18.10;;;11.23;;
3006;SDS011;1513;47.650;10.720;2023-05-14T01:52:27;19.80;;;12.17;;
3006;SDS011;1513;47.650;10.720;2023-05-14T01:54:54;24.80;;;14.43;;
3006;SDS011;1513;47.650;10.720;2023-05-14T01:57:22;25.83;;;12.90;;
3006;SDS011;1513;47.650;10.720;2023-05-14T01:59:48;23.23;;;13.97;;
3006;SDS011;1513;47.650;10.720;2023-05-14T02:02:15;27.70;;;15.43;;
3006;SDS011;1513;47.650;10.720;2023-05-14T02:04:41;26.93;;;15.20;;
3006;SDS011;1513;47.650;10.720;2023-05-14T02:07:07;26.87;;;15.43;;
3006;SDS011;1513;47.650;10.720;2023-05-14T02:09:33;28.23;;;15.13;;
3006;SDS011;1513;47.650;10.720;2023-05-14T02:12:00;23.47;;;13.57;;
3006;SDS011;1513;47.650;10.720;2023-05-14T02:14:26;22.77;;;14.07;;
3006;SDS011;1513;47.650;10.720;2023-05-14T02:16:52;23.70;;;13.47;;
3006;SDS011;1513;47.650;10.720;2023-05-14T02:19:19;23.80;;;14.83;;
3006;SDS011;1513;47.650;10.720;2023-05-14T02:21:45;22.60;;;14.03;;
3006;SDS011;1513;47.650;10.720;2023-05-14T02:24:12;26.37;;;14.97;;
3006;SDS011;1513;47.650;10.720;2023-05-14T02:26:38;24.77;;;15.40;;
3006;SDS011;1513;47.650;10.720;2023-05-14T02:29:05;27.17;;;14.97;;
3006;SDS011;1513;47.650;10.720;2023-05-14T02:31:31;34.13;;;15.20;;
3006;SDS011;1513;47.650;10.720;2023-05-14T02:33:57;26.80;;;15.23;;
3006;SDS011;1513;47.650;10.720;2023-05-14T02:36:25;32.47;;;14.97;;
3006;SDS011;1513;47.650;10.720;2023-05-14T02:38:51;25.43;;;14.60;;
3006;SDS011;1513;47.650;10.720;2023-05-14T02:41:18;26.63;;;16.07;;
3006;SDS011;1513;47.650;10.720;2023-05-14T02:43:44;24.53;;;15.03;;
3006;SDS011;1513;47.650;10.720;2023-05-14T02:46:10;24.27;;;13.80;;
3006;SDS011;1513;47.650;10.720;2023-05-14T02:48:36;25.27;;;14.07;;
3006;SDS011;1513;47.650;10.720;2023-05-14T02:51:03;26.30;;;14.80;;
3006;SDS011;1513;47.650;10.720;2023-05-14T02:53:29;25.53;;;14.47;;
3006;SDS011;1513;47.650;10.720;2023-05-14T02:55:55;27.97;;;15.10;;
3006;SDS011;1513;47.650;10.720;2023-05-14T02:58:22;25.87;;;15.70;;
3006;SDS011;1513;47.650;10.720;2023-05-14T03:00:48;28.37;;;15.47;;
3006;SDS011;1513;47.650;10.720;2023-05-14T03:03:14;27.23;;;15.70;;
3006;SDS011;1513;47.650;10.720;2023-05-14T03:05:41;32.93;;;15.50;;
3006;SDS011;1513;47.650;10.720;2023-05-14T03:08:07;26.47;;;16.10;;
3006;SDS011;1513;47.650;10.720;2023-05-14T03:10:33;29.57;;;16.93;;
3006;SDS011;1513;47.650;10.720;2023-05-14T03:12:59;27.90;;;15.80;;
3006;SDS011;1513;47.650;10.720;2023-05-14T03:15:26;32.60;;;16.70;;
3006;SDS011;1513;47.650;10.720;2023-05-14T03:17:52;29.67;;;16.30;;
3006;SDS011;1513;47.650;10.720;2023-05-14T03:20:18;28.47;;;16.80;;
3006;SDS011;1513;47.650;10.720;2023-05-14T03:22:47;28.00;;;16.77;;
3006;SDS011;1513;47.650;10.720;2023-05-14T03:25:13;32.30;;;15.90;;
3006;SDS011;1513;47.650;10.720;2023-05-14T03:27:39;29.50;;;15.90;;
3006;SDS011;1513;47.650;10.720;2023-05-14T03:30:06;31.17;;;16.87;;
3006;SDS011;1513;47.650;10.720;2023-05-14T03:32:33;28.83;;;16.60;;
3006;SDS011;1513;47.650;10.720;2023-05-14T03:34:59;30.90;;;17.23;;
3006;SDS011;1513;47.650;10.720;2023-05-14T03:37:25;30.57;;;16.90;;
3006;SDS011;1513;47.650;10.720;2023-05-14T03:39:51;28.60;;;16.83;;
3006;SDS011;1513;47.650;10.720;2023-05-14T03:42:18;29.57;;;16.80;;
3006;SDS011;1513;47.650;10.720;2023-05-14T03:44:44;30.33;;;16.47;;
3006;SDS011;1513;47.650;10.720;2023-05-14T03:47:10;28.97;;;17.00;;
3006;SDS011;1513;47.650;10.720;2023-05-14T03:49:37;27.10;;;15.73;;
3006;SDS011;1513;47.650;10.720;2023-05-14T03:52:04;26.93;;;15.90;;
3006;SDS011;1513;47.650;10.720;2023-05-14T03:54:30;26.10;;;15.50;;
3006;SDS011;1513;47.650;10.720;2023-05-14T03:56:58;25.10;;;15.13;;
3006;SDS011;1513;47.650;10.720;2023-05-14T03:59:26;27.43;;;15.40;;
3006;SDS011;1513;47.650;10.720;2023-05-14T04:01:52;29.40;;;16.40;;
3006;SDS011;1513;47.650;10.720;2023-05-14T04:04:19;28.30;;;15.37;;
3006;SDS011;1513;47.650;10.720;2023-05-14T04:06:45;26.77;;;15.37;;
3006;SDS011;1513;47.650;10.720;2023-05-14T04:09:11;30.83;;;16.43;;
3006;SDS011;1513;47.650;10.720;2023-05-14T04:11:38;29.90;;;17.00;;
3006;SDS011;1513;47.650;10.720;2023-05-14T04:14:04;26.77;;;15.90;;
3006;SDS011;1513;47.650;10.720;2023-05-14T04:16:31;27.00;;;15.20;;
3006;SDS011;1513;47.650;10.720;2023-05-14T04:18:57;29.70;;;16.60;;
3006;SDS011;1513;47.650;10.720;2023-05-14T04:21:25;30.87;;;16.63;;
3006;SDS011;1513;47.650;10.720;2023-05-14T04:23:51;30.03;;;16.70;;
3006;SDS011;1513;47.650;10.720;2023-05-14T04:26:18;31.23;;;16.90;;
3006;SDS011;1513;47.650;10.720;2023-05-14T04:28:45;27.77;;;15.40;;
3006;SDS011;1513;47.650;10.720;2023-05-14T04:31:11;29.60;;;16.50;;
3006;SDS011;1513;47.650;10.720;2023-05-14T04:33:39;27.77;;;16.10;;
3006;SDS011;1513;47.650;10.720;2023-05-14T04:36:05;35.80;;;20.37;;
3006;SDS011;1513;47.650;10.720;2023-05-14T04:38:32;33.33;;;18.77;;
3006;SDS011;1513;47.650;10.720;2023-05-14T04:40:59;35.93;;;19.10;;
3006;SDS011;1513;47.650;10.720;2023-05-14T04:43:25;35.70;;;18.60;;
3006;SDS011;1513;47.650;10.720;2023-05-14T04:45:51;34.20;;;18.00;;
3006;SDS011;1513;47.650;10.720;2023-05-14T04:48:17;35.67;;;16.90;;
3006;SDS011;1513;47.650;10.720;2023-05-14T04:50:44;36.23;;;18.03;;
3006;SDS011;1513;47.650;10.720;2023-05-14T04:53:10;41.40;;;19.90;;
3006;SDS011;1513;47.650;10.720;2023-05-14T04:55:36;36.00;;;18.60;;
3006;SDS011;1513;47.650;10.720;2023-05-14T04:58:03;32.03;;;18.13;;
3006;SDS011;1513;47.650;10.720;2023-05-14T05:00:29;32.30;;;16.33;;
3006;SDS011;1513;47.650;10.720;2023-05-14T05:02:56;33.37;;;18.03;;
3006;SDS011;1513;47.650;10.720;2023-05-14T05:05:22;31.33;;;16.53;;
3006;SDS011;1513;47.650;10.720;2023-05-14T05:07:49;33.40;;;17.47;;
3006;SDS011;1513;47.650;10.720;2023-05-14T05:10:15;36.00;;;19.13;;
3006;SDS011;1513;47.650;10.720;2023-05-14T05:12:41;28.93;;;16.00;;
3006;SDS011;1513;47.650;10.720;2023-05-14T05:15:08;32.30;;;17.77;;
3006;SDS011;1513;47.650;10.720;2023-05-14T05:17:34;33.00;;;17.57;;
3006;SDS011;1513;47.650;10.720;2023-05-14T05:20:01;33.73;;;17.40;;
3006;SDS011;1513;47.650;10.720;2023-05-14T05:22:29;35.77;;;16.90;;
3006;SDS011;1513;47.650;10.720;2023-05-14T05:24:55;31.50;;;17.60;;
3006;SDS011;1513;47.650;10.720;2023-05-14T05:27:22;32.57;;;16.80;;
3006;SDS011;1513;47.650;10.720;2023-05-14T05:29:49;29.07;;;16.60;;
3006;SDS011;1513;47.650;10.720;2023-05-14T05:32:15;29.40;;;16.97;;
3006;SDS011;1513;47.650;10.720;2023-05-14T05:34:41;28.03;;;15.53;;
3006;SDS011;1513;47.650;10.720;2023-05-14T05:37:07;28.10;;;16.30;;
3006;SDS011;1513;47.650;10.720;2023-05-14T05:39:36;28.87;;;15.80;;
3006;SDS011;1513;47.650;10.720;2023-05-14T05:42:04;30.07;;;17.03;;
3006;SDS011;1513;47.650;10.720;2023-05-14T05:44:30;27.50;;;15.27;;
3006;SDS011;1513;47.650;10.720;2023-05-14T05:46:57;27.67;;;15.50;;
3006;SDS011;1513;47.650;10.720;2023-05-14T05:49:23;26.30;;;14.47;;
3006;SDS011;1513;47.650;10.720;2023-05-14T05:51:50;26.90;;;13.93;;
3006;SDS011;1513;47.650;10.720;2023-05-14T05:54:16;30.23;;;15.80;;
3006;SDS011;1513;47.650;10.720;2023-05-14T05:56:42;29.10;;;15.87;;
3006;SDS011;1513;47.650;10.720;2023-05-14T05:59:09;28.77;;;15.17;;
3006;SDS011;1513;47.650;10.720;2023-05-14T06:01:35;29.57;;;16.43;;
3006;SDS011;1513;47.650;10.720;2023-05-14T06:04:01;24.10;;;14.53;;
3006;SDS011;1513;47.650;10.720;2023-05-14T06:06:30;31.30;;;16.93;;
3006;SDS011;1513;47.650;10.720;2023-05-14T06:08:57;27.50;;;15.00;;
3006;SDS011;1513;47.650;10.720;2023-05-14T06:11:23;29.63;;;15.77;;
3006;SDS011;1513;47.650;10.720;2023-05-14T06:13:49;30.20;;;16.20;;
3006;SDS011;1513;47.650;10.720;2023-05-14T06:16:15;32.70;;;15.70;;
3006;SDS011;1513;47.650;10.720;2023-05-14T06:18:42;31.03;;;15.30;;
3006;SDS011;1513;47.650;10.720;2023-05-14T06:21:08;29.87;;;15.20;;
3006;SDS011;1513;47.650;10.720;2023-05-14T06:23:34;31.03;;;16.97;;
3006;SDS011;1513;47.650;10.720;2023-05-14T06:26:01;29.63;;;15.80;;
3006;SDS011;1513;47.650;10.720;2023-05-14T06:28:27;30.80;;;16.03;;
3006;SDS011;1513;47.650;10.720;2023-05-14T06:30:53;37.07;;;17.37;;
3006;SDS011;1513;47.650;10.720;2023-05-14T06:33:20;35.10;;;17.93;;
3006;SDS011;1513;47.650;10.720;2023-05-14T06:35:53;28.73;;;15.00;;
3006;SDS011;1513;47.650;10.720;2023-05-14T06:38:20;29.87;;;17.07;;
3006;SDS011;1513;47.650;10.720;2023-05-14T06:40:46;28.07;;;15.43;;
3006;SDS011;1513;47.650;10.720;2023-05-14T06:43:12;26.87;;;15.20;;
3006;SDS011;1513;47.650;10.720;2023-05-14T06:45:39;27.53;;;15.10;;
3006;SDS011;1513;47.650;10.720;2023-05-14T06:48:05;24.67;;;13.83;;
3006;SDS011;1513;47.650;10.720;2023-05-14T06:50:34;26.80;;;14.30;;
3006;SDS011;1513;47.650;10.720;2023-05-14T06:53:00;24.87;;;14.07;;
3006;SDS011;1513;47.650;10.720;2023-05-14T06:55:26;22.77;;;13.53;;
3006;SDS011;1513;47.650;10.720;2023-05-14T06:57:53;26.27;;;14.23;;
3006;SDS011;1513;47.650;10.720;2023-05-14T07:00:19;20.80;;;12.83;;
3006;SDS011;1513;47.650;10.720;2023-05-14T07:02:46;22.37;;;12.67;;
3006;SDS011;1513;47.650;10.720;2023-05-14T07:05:13;20.40;;;12.50;;
3006;SDS011;1513;47.650;10.720;2023-05-14T07:07:39;21.40;;;13.03;;
3006;SDS011;1513;47.650;10.720;2023-05-14T07:10:05;22.87;;;13.47;;
3006;SDS011;1513;47.650;10.720;2023-05-14T07:12:32;21.77;;;13.47;;
3006;SDS011;1513;47.650;10.720;2023-05-14T07:14:58;26.23;;;12.90;;
3006;SDS011;1513;47.650;10.720;2023-05-14T07:17:24;22.47;;;13.70;;
3006;SDS011;1513;47.650;10.720;2023-05-14T07:19:51;17.67;;;11.70;;
3006;SDS011;1513;47.650;10.720;2023-05-14T07:22:19;17.80;;;10.97;;
3006;SDS011;1513;47.650;10.720;2023-05-14T07:24:46;16.00;;;10.60;;
3006;SDS011;1513;47.650;10.720;2023-05-14T07:27:13;18.30;;;11.27;;
3006;SDS011;1513;47.650;10.720;2023-05-14T07:29:41;16.50;;;10.90;;
3006;SDS011;1513;47.650;10.720;2023-05-14T07:32:07;15.80;;;10.07;;
3006;SDS011;1513;47.650;10.720;2023-05-14T07:34:33;17.90;;;10.90;;
3006;SDS011;1513;47.650;10.720;2023-05-14T07:37:00;19.23;;;10.87;;
3006;SDS011;1513;47.650;10.720;2023-05-14T07:39:27;15.30;;;9.63;;
3006;SDS011;1513;47.650;10.720;2023-05-14T07:41:53;17.93;;;10.63;;
3006;SDS011;1513;47.650;10.720;2023-05-14T07:44:19;17.93;;;11.13;;
3006;SDS011;1513;47.650;10.720;2023-05-14T07:46:46;16.30;;;10.77;;
3006;SDS011;1513;47.650;10.720;2023-05-14T07:49:12;19.00;;;11.30;;
3006;SDS011;1513;47.650;10.720;2023-05-14T07:51:39;19.40;;;11.37;;
3006;SDS011;1513;47.650;10.720;2023-05-14T07:54:05;17.47;;;10.97;;
3006;SDS011;1513;47.650;10.720;2023-05-14T07:56:32;19.87;;;12.20;;
3006;SDS011;1513;47.650;10.720;2023-05-14T07:58:58;26.17;;;13.97;;
3006;SDS011;1513;47.650;10.720;2023-05-14T08:01:25;16.00;;;10.13;;
3006;SDS011;1513;47.650;10.720;2023-05-14T08:03:52;15.47;;;9.40;;
3006;SDS011;1513;47.650;10.720;2023-05-14T08:06:18;15.70;;;9.20;;
3006;SDS011;1513;47.650;10.720;2023-05-14T08:08:46;18.27;;;9.97;;
3006;SDS011;1513;47.650;10.720;2023-05-14T08:11:12;18.00;;;10.10;;
3006;SDS011;1513;47.650;10.720;2023-05-14T08:13:39;13.93;;;8.60;;
3006;SDS011;1513;47.650;10.720;2023-05-14T08:16:06;18.93;;;11.93;;
3006;SDS011;1513;47.650;10.720;2023-05-14T08:18:33;17.20;;;9.20;;
3006;SDS011;1513;47.650;10.720;2023-05-14T08:21:00;15.20;;;9.00;;
3006;SDS011;1513;47.650;10.720;2023-05-14T08:23:26;17.17;;;11.10;;
3006;SDS011;1513;47.650;10.720;2023-05-14T08:25:53;10.43;;;6.60;;
3006;SDS011;1513;47.650;10.720;2023-05-14T08:28:20;18.00;;;10.70;;
3006;SDS011;1513;47.650;10.720;2023-05-14T08:30:46;9.57;;;6.10;;
3006;SDS011;1513;47.650;10.720;2023-05-14T08:33:12;9.57;;;6.37;;
3006;SDS011;1513;47.650;10.720;2023-05-14T08:35:39;6.77;;;4.97;;
3006;SDS011;1513;47.650;10.720;2023-05-14T08:38:05;7.97;;;5.80;;
3006;SDS011;1513;47.650;10.720;2023-05-14T08:40:32;8.13;;;5.80;;
3006;SDS011;1513;47.650;10.720;2023-05-14T08:42:59;8.87;;;6.17;;
3006;SDS011;1513;47.650;10.720;2023-05-14T08:45:28;9.20;;;6.77;;
3006;SDS011;1513;47.650;10.720;2023-05-14T08:47:58;6.43;;;5.43;;
3006;SDS011;1513;47.650;10.720;2023-05-14T08:50:29;4.43;;;3.80;;
3006;SDS011;1513;47.650;10.720;2023-05-14T08:52:56;3.83;;;3.47;;
3006;SDS011;1513;47.650;10.720;2023-05-14T08:55:22;3.03;;;2.67;;
3006;SDS011;1513;47.650;10.720;2023-05-14T08:57:50;2.70;;;2.50;;
3006;SDS011;1513;47.650;10.720;2023-05-14T09:00:16;5.30;;;3.90;;
3006;SDS011;1513;47.650;10.720;2023-05-14T09:02:43;6.60;;;4.70;;
3006;SDS011;1513;47.650;10.720;2023-05-14T09:05:10;3.93;;;3.43;;
3006;SDS011;1513;47.650;10.720;2023-05-14T09:07:37;4.50;;;3.70;;
3006;SDS011;1513;47.650;10.720;2023-05-14T09:10:03;5.50;;;4.33;;
3006;SDS011;1513;47.650;10.720;2023-05-14T09:12:30;7.00;;;3.80;;
3006;SDS011;1513;47.650;10.720;2023-05-14T09:14:56;4.93;;;3.87;;
3006;SDS011;1513;47.650;10.720;2023-05-14T09:17:24;4.50;;;3.77;;
3006;SDS011;1513;47.650;10.720;2023-05-14T09:19:51;6.20;;;2.90;;
3006;SDS011;1513;47.650;10.720;2023-05-14T09:22:18;4.57;;;3.57;;
3006;SDS011;1513;47.650;10.720;2023-05-14T09:24:44;3.43;;;3.10;;
3006;SDS011;1513;47.650;10.720;2023-05-14T09:27:17;3.97;;;3.27;;
3006;SDS011;1513;47.650;10.720;2023-05-14T09:29:46;2.40;;;2.30;;
3006;SDS011;1513;47.650;10.720;2023-05-14T09:32:13;5.30;;;3.53;;
3006;SDS011;1513;47.650;10.720;2023-05-14T09:34:40;5.13;;;4.07;;
3006;SDS011;1513;47.650;10.720;2023-05-14T09:37:07;4.07;;;3.67;;
3006;SDS011;1513;47.650;10.720;2023-05-14T09:39:34;2.80;;;2.53;;
3006;SDS011;1513;47.650;10.720;2023-05-14T09:42:01;2.70;;;2.40;;
3006;SDS011;1513;47.650;10.720;2023-05-14T09:44:28;2.77;;;2.27;;
3006;SDS011;1513;47.650;10.720;2023-05-14T09:46:54;13.37;;;7.10;;
3006;SDS011;1513;47.650;10.720;2023-05-14T09:49:21;6.07;;;4.40;;
3006;SDS011;1513;47.650;10.720;2023-05-14T09:51:47;2.17;;;2.07;;
3006;SDS011;1513;47.650;10.720;2023-05-14T09:54:14;2.13;;;2.03;;
3006;SDS011;1513;47.650;10.720;2023-05-14T09:56:42;2.20;;;2.00;;
3006;SDS011;1513;47.650;10.720;2023-05-14T09:59:09;2.10;;;1.83;;
3006;SDS011;1513;47.650;10.720;2023-05-14T10:01:35;2.00;;;1.67;;
3006;SDS011;1513;47.650;10.720;2023-05-14T10:04:02;3.43;;;3.13;;
3006;SDS011;1513;47.650;10.720;2023-05-14T10:06:32;3.20;;;1.80;;
3006;SDS011;1513;47.650;10.720;2023-05-14T10:09:04;1.90;;;1.70;;
3006;SDS011;1513;47.650;10.720;2023-05-14T10:11:36;3.67;;;3.10;;
3006;SDS011;1513;47.650;10.720;2023-05-14T10:14:07;2.77;;;2.57;;
3006;SDS011;1513;47.650;10.720;2023-05-14T10:17:03;3.97;;;2.90;;
3006;SDS011;1513;47.650;10.720;2023-05-14T10:19:32;4.60;;;3.63;;
3006;SDS011;1513;47.650;10.720;2023-05-14T10:22:02;7.77;;;4.77;;
3006;SDS011;1513;47.650;10.720;2023-05-14T10:24:29;6.70;;;4.90;;
3006;SDS011;1513;47.650;10.720;2023-05-14T10:26:56;8.00;;;5.53;;
3006;SDS011;1513;47.650;10.720;2023-05-14T10:29:40;8.30;;;5.23;;
3006;SDS011;1513;47.650;10.720;2023-05-14T10:32:07;8.50;;;5.20;;
3006;SDS011;1513;47.650;10.720;2023-05-14T10:37:06;7.70;;;5.10;;
3006;SDS011;1513;47.650;10.720;2023-05-14T10:39:48;7.93;;;4.70;;
3006;SDS011;1513;47.650;10.720;2023-05-14T10:42:22;7.77;;;5.07;;
3006;SDS011;1513;47.650;10.720;2023-05-14T10:44:57;8.23;;;4.73;;
3006;SDS011;1513;47.650;10.720;2023-05-14T10:47:27;4.73;;;4.23;;
3006;SDS011;1513;47.650;10.720;2023-05-14T10:49:54;11.30;;;6.60;;
3006;SDS011;1513;47.650;10.720;2023-05-14T10:52:25;10.57;;;6.83;;
3006;SDS011;1513;47.650;10.720;2023-05-14T10:54:55;5.57;;;4.73;;
3006;SDS011;1513;47.650;10.720;2023-05-14T10:57:24;7.00;;;4.73;;
3006;SDS011;1513;47.650;10.720;2023-05-14T10:59:54;7.53;;;5.30;;
3006;SDS011;1513;47.650;10.720;2023-05-14T11:02:23;6.27;;;4.60;;
3006;SDS011;1513;47.650;10.720;2023-05-14T11:04:51;8.63;;;5.40;;
3006;SDS011;1513;47.650;10.720;2023-05-14T11:07:25;7.60;;;5.63;;
3006;SDS011;1513;47.650;10.720;2023-05-14T11:09:56;10.10;;;7.00;;
3006;SDS011;1513;47.650;10.720;2023-05-14T11:12:31;13.53;;;9.27;;
3006;SDS011;1513;47.650;10.720;2023-05-14T11:15:02;9.30;;;6.70;;
3006;SDS011;1513;47.650;10.720;2023-05-14T11:17:31;9.40;;;5.37;;
3006;SDS011;1513;47.650;10.720;2023-05-14T11:19:58;9.37;;;6.60;;
3006;SDS011;1513;47.650;10.720;2023-05-14T11:22:25;10.40;;;6.00;;
3006;SDS011;1513;47.650;10.720;2023-05-14T11:24:51;9.33;;;5.20;;
3006;SDS011;1513;47.650;10.720;2023-05-14T11:27:19;7.30;;;5.33;;
3006;SDS011;1513;47.650;10.720;2023-05-14T11:29:46;9.37;;;6.10;;
3006;SDS011;1513;47.650;10.720;2023-05-14T11:32:13;14.60;;;8.13;;
3006;SDS011;1513;47.650;10.720;2023-05-14T11:34:40;15.73;;;9.57;;
3006;SDS011;1513;47.650;10.720;2023-05-14T11:37:09;15.03;;;8.70;;
3006;SDS011;1513;47.650;10.720;2023-05-14T11:39:37;16.00;;;8.70;;
3006;SDS011;1513;47.650;10.720;2023-05-14T11:42:04;14.87;;;9.33;;
3006;SDS011;1513;47.650;10.720;2023-05-14T11:44:37;16.30;;;9.60;;
3006;SDS011;1513;47.650;10.720;2023-05-14T11:47:03;13.50;;;8.00;;
3006;SDS011;1513;47.650;10.720;2023-05-14T11:49:30;14.80;;;8.57;;
3006;SDS011;1513;47.650;10.720;2023-05-14T11:51:57;13.07;;;8.23;;
3006;SDS011;1513;47.650;10.720;2023-05-14T11:54:25;13.87;;;8.80;;
3006;SDS011;1513;47.650;10.720;2023-05-14T11:56:53;13.07;;;8.37;;
3006;SDS011;1513;47.650;10.720;2023-05-14T11:59:23;14.07;;;8.07;;
3006;SDS011;1513;47.650;10.720;2023-05-14T12:01:50;9.30;;;6.40;;
3006;SDS011;1513;47.650;10.720;2023-05-14T12:04:17;10.57;;;6.50;;
3006;SDS011;1513;47.650;10.720;2023-05-14T12:06:47;11.67;;;7.20;;
3006;SDS011;1513;47.650;10.720;2023-05-14T12:09:20;16.90;;;8.53;;
3006;SDS011;1513;47.650;10.720;2023-05-14T12:11:47;14.93;;;8.63;;
3006;SDS011;1513;47.650;10.720;2023-05-14T12:14:15;12.43;;;7.83;;
3006;SDS011;1513;47.650;10.720;2023-05-14T12:16:48;11.00;;;7.33;;
3006;SDS011;1513;47.650;10.720;2023-05-14T12:19:16;13.97;;;8.40;;
3006;SDS011;1513;47.650;10.720;2023-05-14T12:21:44;17.60;;;8.30;;
3006;SDS011;1513;47.650;10.720;2023-05-14T12:24:12;14.97;;;8.90;;
3006;SDS011;1513;47.650;10.720;2023-05-14T12:26:44;12.93;;;8.10;;
3006;SDS011;1513;47.650;10.720;2023-05-14T12:29:12;15.90;;;8.70;;
3006;SDS011;1513;47.650;10.720;2023-05-14T12:31:46;19.30;;;8.53;;
3006;SDS011;1513;47.650;10.720;2023-05-14T12:34:13;19.63;;;9.30;;
3006;SDS011;1513;47.650;10.720;2023-05-14T12:36:40;16.50;;;9.07;;
3006;SDS011;1513;47.650;10.720;2023-05-14T12:39:07;15.07;;;9.60;;
3006;SDS011;1513;47.650;10.720;2023-05-14T12:41:34;17.03;;;9.03;;
3006;SDS011;1513;47.650;10.720;2023-05-14T12:44:01;17.43;;;9.43;;
3006;SDS011;1513;47.650;10.720;2023-05-14T12:46:28;16.47;;;8.40;;
3006;SDS011;1513;47.650;10.720;2023-05-14T12:48:55;18.47;;;10.30;;
3006;SDS011;1513;47.650;10.720;2023-05-14T12:51:22;12.53;;;7.80;;
3006;SDS011;1513;47.650;10.720;2023-05-14T12:53:48;13.03;;;8.67;;
3006;SDS011;1513;47.650;10.720;2023-05-14T12:56:16;13.73;;;8.43;;
3006;SDS011;1513;47.650;10.720;2023-05-14T12:58:42;13.50;;;7.93;;
3006;SDS011;1513;47.650;10.720;2023-05-14T13:01:10;16.13;;;8.57;;
3006;SDS011;1513;47.650;10.720;2023-05-14T13:03:37;14.47;;;8.60;;
3006;SDS011;1513;47.650;10.720;2023-05-14T13:06:03;14.00;;;8.67;;
3006;SDS011;1513;47.650;10.720;2023-05-14T13:08:30;15.60;;;8.67;;
3006;SDS011;1513;47.650;10.720;2023-05-14T13:10:56;14.13;;;8.70;;
3006;SDS011;1513;47.650;10.720;2023-05-14T13:13:23;15.10;;;8.00;;
3006;SDS011;1513;47.650;10.720;2023-05-14T13:15:49;17.30;;;8.50;;
3006;SDS011;1513;47.650;10.720;2023-05-14T13:18:16;15.60;;;8.60;;
3006;SDS011;1513;47.650;10.720;2023-05-14T13:20:44;13.87;;;7.90;;
3006;SDS011;1513;47.650;10.720;2023-05-14T13:23:11;15.93;;;8.30;;
3006;SDS011;1513;47.650;10.720;2023-05-14T13:25:38;17.60;;;10.17;;
3006;SDS011;1513;47.650;10.720;2023-05-14T13:28:04;16.10;;;10.30;;
3006;SDS011;1513;47.650;10.720;2023-05-14T13:30:32;17.93;;;10.60;;
3006;SDS011;1513;47.650;10.720;2023-05-14T13:32:58;18.17;;;10.70;;
3006;SDS011;1513;47.650;10.720;2023-05-14T13:35:24;18.97;;;10.10;;
3006;SDS011;1513;47.650;10.720;2023-05-14T13:37:51;20.63;;;11.00;;
3006;SDS011;1513;47.650;10.720;2023-05-14T13:40:17;20.27;;;10.43;;
3006;SDS011;1513;47.650;10.720;2023-05-14T13:42:43;16.90;;;9.70;;
3006;SDS011;1513;47.650;10.720;2023-05-14T13:45:10;15.30;;;9.87;;
3006;SDS011;1513;47.650;10.720;2023-05-14T13:47:37;15.63;;;8.77;;
3006;SDS011;1513;47.650;10.720;2023-05-14T13:50:03;15.53;;;9.13;;
3006;SDS011;1513;47.650;10.720;2023-05-14T13:52:30;16.10;;;9.53;;
3006;SDS011;1513;47.650;10.720;2023-05-14T13:54:56;15.00;;;9.13;;
3006;SDS011;1513;47.650;10.720;2023-05-14T13:57:22;18.77;;;9.27;;
3006;SDS011;1513;47.650;10.720;2023-05-14T13:59:48;17.93;;;8.30;;
3006;SDS011;1513;47.650;10.720;2023-05-14T14:02:15;10.87;;;7.63;;
3006;SDS011;1513;47.650;10.720;2023-05-14T14:04:41;11.87;;;7.13;;
3006;SDS011;1513;47.650;10.720;2023-05-14T14:07:08;12.20;;;8.00;;
3006;SDS011;1513;47.650;10.720;2023-05-14T14:09:34;19.40;;;8.60;;
3006;SDS011;1513;47.650;10.720;2023-05-14T14:12:04;11.10;;;7.20;;
3006;SDS011;1513;47.650;10.720;2023-05-14T14:14:31;13.43;;;8.50;;
3006;SDS011;1513;47.650;10.720;2023-05-14T14:16:57;14.73;;;8.13;;
3006;SDS011;1513;47.650;10.720;2023-05-14T14:19:23;13.60;;;8.40;;
3006;SDS011;1513;47.650;10.720;2023-05-14T14:21:50;11.07;;;7.80;;
3006;SDS011;1513;47.650;10.720;2023-05-14T14:24:16;9.80;;;7.27;;
3006;SDS011;1513;47.650;10.720;2023-05-14T14:26:42;11.97;;;7.67;;
3006;SDS011;1513;47.650;10.720;2023-05-14T14:29:09;10.30;;;6.47;;
3006;SDS011;1513;47.650;10.720;2023-05-14T14:31:35;12.83;;;6.87;;
3006;SDS011;1513;47.650;10.720;2023-05-14T14:34:01;6.57;;;4.87;;
3006;SDS011;1513;47.650;10.720;2023-05-14T14:36:27;9.20;;;5.93;;
3006;SDS011;1513;47.650;10.720;2023-05-14T14:38:54;9.33;;;6.50;;
3006;SDS011;1513;47.650;10.720;2023-05-14T14:41:21;8.83;;;6.30;;
3006;SDS011;1513;47.650;10.720;2023-05-14T14:43:47;8.67;;;5.40;;
3006;SDS011;1513;47.650;10.720;2023-05-14T14:46:13;7.93;;;5.70;;
3006;SDS011;1513;47.650;10.720;2023-05-14T14:48:40;8.00;;;5.90;;
3006;SDS011;1513;47.650;10.720;2023-05-14T14:51:06;7.63;;;5.93;;